sensor_id;sensor_type;location;lat;lon;timestamp;P1;durP1;ratioP1;P2;durP2;ratioP2
77164;SDS011;66140;50.280;18.660;2023-03-01T05:00:30;108.78;;;45.92;;
77164;SDS011;66140;50.280;18.660;2023-03-01T05:02:57;104.70;;;46.90;;
77164;SDS011;66140;50.280;18.660;2023-03-01T05:07:56;113.78;;;49.30;;
77164;SDS011;66140;50.280;18.660;2023-03-01T05:10:23;121.35;;;47.60;;
77164;SDS011;66140;50.280;18.660;2023-03-01T05:12:50;114.38;;;45.03;;
77164;SDS011;66140;50.280;18.660;2023-03-01T05:15:17;101.40;;;46.63;;
77164;SDS011;66140;50.280;18.660;2023-03-01T05:17:43;111.93;;;45.95;;
77164;SDS011;66140;50.280;18.660;2023-03-01T05:20:09;107.32;;;46.85;;
77164;SDS011;66140;50.280;18.660;2023-03-01T05:22:35;113.05;;;46.30;;
77164;SDS011;66140;50.280;18.660;2023-03-01T05:25:01;122.38;;;46.40;;
77164;SDS011;66140;50.280;18.660;2023-03-01T05:27:27;125.25;;;49.10;;
77164;SDS011;66140;50.280;18.660;2023-03-01T05:29:52;113.18;;;45.38;;
77164;SDS011;66140;50.280;18.660;2023-03-01T05:32:17;101.75;;;44.92;;
77164;SDS011;66140;50.280;18.660;2023-03-01T05:34:43;122.38;;;50.33;;
77164;SDS011;66140;50.280;18.660;2023-03-01T05:37:11;126.55;;;48.47;;
77164;SDS011;66140;50.280;18.660;2023-03-01T05:39:37;117.45;;;43.53;;
77164;SDS011;66140;50.280;18.660;2023-03-01T05:42:03;115.95;;;47.85;;
77164;SDS011;66140;50.280;18.660;2023-03-01T05:44:28;129.38;;;49.63;;
77164;SDS011;66140;50.280;18.660;2023-03-01T05:46:54;114.93;;;51.47;;
77164;SDS011;66140;50.280;18.660;2023-03-01T05:49:20;114.78;;;53.22;;
77164;SDS011;66140;50.280;18.660;2023-03-01T05:51:49;131.63;;;54.63;;
77164;SDS011;66140;50.280;18.660;2023-03-01T05:54:16;104.22;;;46.22;;
77164;SDS011;66140;50.280;18.660;2023-03-01T05:56:42;131.85;;;53.80;;
77164;SDS011;66140;50.280;18.660;2023-03-01T05:59:08;114.18;;;51.50;;
77164;SDS011;66140;50.280;18.660;2023-03-01T06:01:34;131.40;;;50.63;;
77164;SDS011;66140;50.280;18.660;2023-03-01T06:04:00;123.75;;;49.47;;
77164;SDS011;66140;50.280;18.660;2023-03-01T06:06:26;126.57;;;51.78;;
77164;SDS011;66140;50.280;18.660;2023-03-01T06:08:52;126.95;;;50.42;;
77164;SDS011;66140;50.280;18.660;2023-03-01T06:11:18;142.68;;;54.17;;
77164;SDS011;66140;50.280;18.660;2023-03-01T06:13:44;117.85;;;49.42;;
77164;SDS011;66140;50.280;18.660;2023-03-01T06:16:11;129.82;;;52.17;;
77164;SDS011;66140;50.280;18.660;2023-03-01T06:18:37;134.80;;;54.47;;
77164;SDS011;66140;50.280;18.660;2023-03-01T06:21:03;144.73;;;59.10;;
77164;SDS011;66140;50.280;18.660;2023-03-01T06:23:30;157.07;;;58.38;;
77164;SDS011;66140;50.280;18.660;2023-03-01T06:25:55;140.48;;;56.53;;
77164;SDS011;66140;50.280;18.660;2023-03-01T06:28:20;132.77;;;54.15;;
77164;SDS011;66140;50.280;18.660;2023-03-01T06:30:47;136.95;;;57.00;;
77164;SDS011;66140;50.280;18.660;2023-03-01T06:33:13;132.15;;;55.13;;
77164;SDS011;66140;50.280;18.660;2023-03-01T06:35:38;127.43;;;53.83;;
77164;SDS011;66140;50.280;18.660;2023-03-01T06:38:04;130.60;;;52.72;;
77164;SDS011;66140;50.280;18.660;2023-03-01T06:40:30;144.68;;;56.63;;
77164;SDS011;66140;50.280;18.660;2023-03-01T06:42:57;129.60;;;50.15;;
77164;SDS011;66140;50.280;18.660;2023-03-01T06:45:23;125.15;;;49.20;;
77164;SDS011;66140;50.280;18.660;2023-03-01T06:47:50;128.80;;;53.60;;
77164;SDS011;66140;50.280;18.660;2023-03-01T06:50:16;132.57;;;54.60;;
77164;SDS011;66140;50.280;18.660;2023-03-01T06:52:42;126.22;;;50.13;;
77164;SDS011;66140;50.280;18.660;2023-03-01T06:55:09;125.03;;;51.42;;
77164;SDS011;66140;50.280;18.660;2023-03-01T06:57:36;131.45;;;52.88;;
77164;SDS011;66140;50.280;18.660;2023-03-01T07:00:02;123.65;;;51.60;;
77164;SDS011;66140;50.280;18.660;2023-03-01T07:02:29;123.55;;;51.63;;
77164;SDS011;66140;50.280;18.660;2023-03-01T07:04:54;118.50;;;50.30;;
77164;SDS011;66140;50.280;18.660;2023-03-01T07:07:20;135.15;;;55.08;;
77164;SDS011;66140;50.280;18.660;2023-03-01T07:09:46;128.20;;;52.72;;
77164;SDS011;66140;50.280;18.660;2023-03-01T07:12:13;125.55;;;51.97;;
77164;SDS011;66140;50.280;18.660;2023-03-01T07:14:38;119.70;;;49.35;;
77164;SDS011;66140;50.280;18.660;2023-03-01T07:17:04;131.07;;;51.13;;
77164;SDS011;66140;50.280;18.660;2023-03-01T07:19:29;120.35;;;51.75;;
77164;SDS011;66140;50.280;18.660;2023-03-01T07:21:55;124.93;;;50.08;;
77164;SDS011;66140;50.280;18.660;2023-03-01T07:24:21;116.88;;;48.72;;
77164;SDS011;66140;50.280;18.660;2023-03-01T07:26:50;139.10;;;54.55;;
77164;SDS011;66140;50.280;18.660;2023-03-01T07:29:16;125.80;;;49.78;;
77164;SDS011;66140;50.280;18.660;2023-03-01T07:31:42;119.60;;;50.08;;
77164;SDS011;66140;50.280;18.660;2023-03-01T07:34:07;112.28;;;45.15;;
77164;SDS011;66140;50.280;18.660;2023-03-01T07:36:33;115.05;;;49.13;;
77164;SDS011;66140;50.280;18.660;2023-03-01T07:38:58;108.03;;;44.47;;
77164;SDS011;66140;50.280;18.660;2023-03-01T07:41:24;118.18;;;45.67;;
77164;SDS011;66140;50.280;18.660;2023-03-01T07:43:49;101.70;;;43.72;;
77164;SDS011;66140;50.280;18.660;2023-03-01T07:46:15;102.15;;;40.78;;
77164;SDS011;66140;50.280;18.660;2023-03-01T07:48:40;96.55;;;40.47;;
77164;SDS011;66140;50.280;18.660;2023-03-01T07:51:06;99.97;;;40.80;;
77164;SDS011;66140;50.280;18.660;2023-03-01T07:53:32;95.82;;;37.78;;
77164;SDS011;66140;50.280;18.660;2023-03-01T07:58:27;83.72;;;35.92;;
77164;SDS011;66140;50.280;18.660;2023-03-01T08:00:52;89.43;;;37.95;;
77164;SDS011;66140;50.280;18.660;2023-03-01T08:03:17;93.57;;;36.63;;
77164;SDS011;66140;50.280;18.660;2023-03-01T08:05:43;92.47;;;39.83;;
77164;SDS011;66140;50.280;18.660;2023-03-01T08:08:08;88.90;;;36.55;;
77164;SDS011;66140;50.280;18.660;2023-03-01T08:10:34;79.20;;;34.87;;
77164;SDS011;66140;50.280;18.660;2023-03-01T08:12:59;91.80;;;37.63;;
77164;SDS011;66140;50.280;18.660;2023-03-01T08:15:24;89.90;;;35.28;;
77164;SDS011;66140;50.280;18.660;2023-03-01T08:17:50;81.07;;;34.80;;
77164;SDS011;66140;50.280;18.660;2023-03-01T08:20:15;78.28;;;33.95;;
77164;SDS011;66140;50.280;18.660;2023-03-01T08:22:41;66.63;;;29.45;;
77164;SDS011;66140;50.280;18.660;2023-03-01T08:25:07;68.35;;;30.60;;
77164;SDS011;66140;50.280;18.660;2023-03-01T08:27:33;67.30;;;30.00;;
77164;SDS011;66140;50.280;18.660;2023-03-01T08:29:58;82.20;;;37.10;;
77164;SDS011;66140;50.280;18.660;2023-03-01T08:32:23;88.87;;;36.43;;
77164;SDS011;66140;50.280;18.660;2023-03-01T08:34:49;81.43;;;36.10;;
77164;SDS011;66140;50.280;18.660;2023-03-01T08:37:14;91.53;;;39.22;;
77164;SDS011;66140;50.280;18.660;2023-03-01T08:39:40;76.70;;;36.75;;
77164;SDS011;66140;50.280;18.660;2023-03-01T08:42:05;86.20;;;38.90;;
77164;SDS011;66140;50.280;18.660;2023-03-01T08:44:30;85.03;;;36.50;;
77164;SDS011;66140;50.280;18.660;2023-03-01T08:46:56;67.30;;;25.83;;
77164;SDS011;66140;50.280;18.660;2023-03-01T08:49:22;51.05;;;24.38;;
77164;SDS011;66140;50.280;18.660;2023-03-01T08:51:48;53.17;;;24.13;;
77164;SDS011;66140;50.280;18.660;2023-03-01T08:54:15;50.05;;;21.48;;
77164;SDS011;66140;50.280;18.660;2023-03-01T08:59:09;49.45;;;19.45;;
77164;SDS011;66140;50.280;18.660;2023-03-01T09:01:35;36.65;;;17.40;;
77164;SDS011;66140;50.280;18.660;2023-03-01T09:04:02;37.35;;;18.77;;
77164;SDS011;66140;50.280;18.660;2023-03-01T09:06:30;37.13;;;17.45;;
77164;SDS011;66140;50.280;18.660;2023-03-01T09:08:58;27.23;;;12.85;;
77164;SDS011;66140;50.280;18.660;2023-03-01T09:11:23;31.65;;;14.20;;
77164;SDS011;66140;50.280;18.660;2023-03-01T09:13:49;37.58;;;17.58;;
77164;SDS011;66140;50.280;18.660;2023-03-01T09:16:15;37.45;;;17.38;;
77164;SDS011;66140;50.280;18.660;2023-03-01T09:18:42;77.07;;;26.65;;
77164;SDS011;66140;50.280;18.660;2023-03-01T09:21:10;44.60;;;20.10;;
77164;SDS011;66140;50.280;18.660;2023-03-01T09:23:39;47.10;;;19.00;;
77164;SDS011;66140;50.280;18.660;2023-03-01T09:26:06;45.58;;;19.08;;
77164;SDS011;66140;50.280;18.660;2023-03-01T09:28:34;49.53;;;21.65;;
77164;SDS011;66140;50.280;18.660;2023-03-01T09:31:00;51.35;;;20.40;;
77164;SDS011;66140;50.280;18.660;2023-03-01T09:33:27;42.60;;;15.48;;
77164;SDS011;66140;50.280;18.660;2023-03-01T09:35:57;31.70;;;15.70;;
77164;SDS011;66140;50.280;18.660;2023-03-01T09:38:26;35.83;;;15.70;;
77164;SDS011;66140;50.280;18.660;2023-03-01T09:40:52;35.42;;;14.05;;
77164;SDS011;66140;50.280;18.660;2023-03-01T09:43:34;34.63;;;15.27;;
77164;SDS011;66140;50.280;18.660;2023-03-01T09:46:04;32.50;;;13.15;;
77164;SDS011;66140;50.280;18.660;2023-03-01T09:48:38;27.48;;;11.82;;
77164;SDS011;66140;50.280;18.660;2023-03-01T09:53:37;22.15;;;10.45;;
77164;SDS011;66140;50.280;18.660;2023-03-01T09:56:16;25.73;;;11.68;;
77164;SDS011;66140;50.280;18.660;2023-03-01T10:09:43;23.25;;;11.15;;
77164;SDS011;66140;50.280;18.660;2023-03-01T10:12:12;26.23;;;11.90;;
77164;SDS011;66140;50.280;18.660;2023-03-01T10:17:34;25.70;;;12.55;;
77164;SDS011;66140;50.280;18.660;2023-03-01T10:22:43;25.42;;;12.02;;
77164;SDS011;66140;50.280;18.660;2023-03-01T10:25:12;30.50;;;14.23;;
77164;SDS011;66140;50.280;18.660;2023-03-01T10:28:16;30.40;;;12.60;;
77164;SDS011;66140;50.280;18.660;2023-03-01T10:30:42;26.27;;;12.63;;
77164;SDS011;66140;50.280;18.660;2023-03-01T10:33:28;34.05;;;13.43;;
77164;SDS011;66140;50.280;18.660;2023-03-01T10:35:56;31.92;;;12.30;;
77164;SDS011;66140;50.280;18.660;2023-03-01T10:38:21;35.05;;;13.32;;
77164;SDS011;66140;50.280;18.660;2023-03-01T10:46:31;32.60;;;13.48;;
77164;SDS011;66140;50.280;18.660;2023-03-01T10:49:14;25.67;;;12.90;;
77164;SDS011;66140;50.280;18.660;2023-03-01T10:51:45;28.80;;;15.25;;
77164;SDS011;66140;50.280;18.660;2023-03-01T10:54:20;24.90;;;13.38;;
77164;SDS011;66140;50.280;18.660;2023-03-01T10:56:50;30.48;;;13.95;;
77164;SDS011;66140;50.280;18.660;2023-03-01T10:59:22;27.85;;;14.27;;
77164;SDS011;66140;50.280;18.660;2023-03-01T11:04:56;32.58;;;16.02;;
77164;SDS011;66140;50.280;18.660;2023-03-01T11:07:49;27.75;;;13.60;;
77164;SDS011;66140;50.280;18.660;2023-03-01T11:10:24;27.40;;;12.55;;
77164;SDS011;66140;50.280;18.660;2023-03-01T11:15:42;27.00;;;12.45;;
77164;SDS011;66140;50.280;18.660;2023-03-01T11:18:21;29.90;;;13.35;;
77164;SDS011;66140;50.280;18.660;2023-03-01T11:20:48;28.23;;;13.25;;
77164;SDS011;66140;50.280;18.660;2023-03-01T11:23:17;28.88;;;13.55;;
77164;SDS011;66140;50.280;18.660;2023-03-01T11:26:05;29.55;;;14.00;;
77164;SDS011;66140;50.280;18.660;2023-03-01T11:28:33;31.52;;;13.57;;
77164;SDS011;66140;50.280;18.660;2023-03-01T11:31:08;24.83;;;12.43;;
77164;SDS011;66140;50.280;18.660;2023-03-01T11:33:57;22.48;;;11.60;;
77164;SDS011;66140;50.280;18.660;2023-03-01T11:36:32;21.80;;;10.73;;
77164;SDS011;66140;50.280;18.660;2023-03-01T11:39:05;25.77;;;11.90;;
77164;SDS011;66140;50.280;18.660;2023-03-01T11:41:42;22.98;;;11.60;;
77164;SDS011;66140;50.280;18.660;2023-03-01T11:44:14;20.38;;;10.95;;
77164;SDS011;66140;50.280;18.660;2023-03-01T12:08:15;35.00;;;15.32;;
77164;SDS011;66140;50.280;18.660;2023-03-01T12:19:26;23.02;;;10.73;;
77164;SDS011;66140;50.280;18.660;2023-03-01T12:22:21;21.45;;;10.73;;
77164;SDS011;66140;50.280;18.660;2023-03-01T12:30:20;22.90;;;10.68;;
77164;SDS011;66140;50.280;18.660;2023-03-01T12:38:41;20.33;;;10.07;;
77164;SDS011;66140;50.280;18.660;2023-03-01T12:46:41;21.73;;;11.32;;
77164;SDS011;66140;50.280;18.660;2023-03-01T12:49:34;29.67;;;13.32;;
77164;SDS011;66140;50.280;18.660;2023-03-01T12:52:13;25.92;;;10.90;;
77164;SDS011;66140;50.280;18.660;2023-03-01T12:54:44;21.60;;;11.20;;
77164;SDS011;66140;50.280;18.660;2023-03-01T13:13:21;20.67;;;10.75;;
77164;SDS011;66140;50.280;18.660;2023-03-01T13:15:50;19.27;;;10.13;;
77164;SDS011;66140;50.280;18.660;2023-03-01T13:31:07;22.65;;;11.20;;
77164;SDS011;66140;50.280;18.660;2023-03-01T13:33:43;20.80;;;11.77;;
77164;SDS011;66140;50.280;18.660;2023-03-01T13:36:09;20.60;;;10.40;;
77164;SDS011;66140;50.280;18.660;2023-03-01T13:38:45;26.52;;;11.63;;
77164;SDS011;66140;50.280;18.660;2023-03-01T13:46:47;20.75;;;10.07;;
77164;SDS011;66140;50.280;18.660;2023-03-01T13:49:16;19.13;;;10.35;;
77164;SDS011;66140;50.280;18.660;2023-03-01T13:51:47;19.77;;;10.57;;
77164;SDS011;66140;50.280;18.660;2023-03-01T13:54:16;25.08;;;11.02;;
77164;SDS011;66140;50.280;18.660;2023-03-01T13:56:50;21.45;;;11.25;;
77164;SDS011;66140;50.280;18.660;2023-03-01T13:59:19;18.67;;;9.75;;
77164;SDS011;66140;50.280;18.660;2023-03-01T14:02:19;23.60;;;10.60;;
77164;SDS011;66140;50.280;18.660;2023-03-01T14:04:38;21.20;;;11.35;;
77164;SDS011;66140;50.280;18.660;2023-03-01T14:07:12;20.15;;;9.60;;
77164;SDS011;66140;50.280;18.660;2023-03-01T14:09:44;22.17;;;11.65;;
77164;SDS011;66140;50.280;18.660;2023-03-01T14:12:59;21.85;;;9.55;;
77164;SDS011;66140;50.280;18.660;2023-03-01T14:20:33;20.25;;;10.48;;
77164;SDS011;66140;50.280;18.660;2023-03-01T14:23:09;22.92;;;10.13;;
77164;SDS011;66140;50.280;18.660;2023-03-01T14:25:37;23.85;;;11.77;;
77164;SDS011;66140;50.280;18.660;2023-03-01T14:30:41;22.65;;;11.18;;
77164;SDS011;66140;50.280;18.660;2023-03-01T14:33:19;23.13;;;10.68;;
77164;SDS011;66140;50.280;18.660;2023-03-01T14:35:51;21.42;;;11.70;;
77164;SDS011;66140;50.280;18.660;2023-03-01T14:41:04;16.33;;;9.55;;
77164;SDS011;66140;50.280;18.660;2023-03-01T14:46:44;20.35;;;9.65;;
77164;SDS011;66140;50.280;18.660;2023-03-01T14:51:38;17.38;;;7.57;;
77164;SDS011;66140;50.280;18.660;2023-03-01T14:57:02;15.82;;;8.30;;
77164;SDS011;66140;50.280;18.660;2023-03-01T14:59:28;12.85;;;7.32;;
77164;SDS011;66140;50.280;18.660;2023-03-01T15:01:55;19.70;;;9.05;;
77164;SDS011;66140;50.280;18.660;2023-03-01T15:04:22;14.10;;;8.00;;
77164;SDS011;66140;50.280;18.660;2023-03-01T15:06:52;19.70;;;8.00;;
77164;SDS011;66140;50.280;18.660;2023-03-01T15:09:20;16.23;;;8.05;;
77164;SDS011;66140;50.280;18.660;2023-03-01T15:11:47;14.68;;;8.32;;
77164;SDS011;66140;50.280;18.660;2023-03-01T15:14:38;17.05;;;9.02;;
77164;SDS011;66140;50.280;18.660;2023-03-01T15:17:37;27.17;;;9.88;;
77164;SDS011;66140;50.280;18.660;2023-03-01T15:20:06;21.15;;;8.88;;
77164;SDS011;66140;50.280;18.660;2023-03-01T15:22:52;17.63;;;8.57;;
77164;SDS011;66140;50.280;18.660;2023-03-01T15:27:59;15.10;;;8.13;;
77164;SDS011;66140;50.280;18.660;2023-03-01T15:30:33;16.67;;;9.55;;
77164;SDS011;66140;50.280;18.660;2023-03-01T15:35:52;19.25;;;9.32;;
77164;SDS011;66140;50.280;18.660;2023-03-01T15:44:24;23.73;;;9.57;;
77164;SDS011;66140;50.280;18.660;2023-03-01T15:46:56;17.75;;;9.05;;
77164;SDS011;66140;50.280;18.660;2023-03-01T15:49:36;21.83;;;11.07;;
77164;SDS011;66140;50.280;18.660;2023-03-01T15:52:04;20.10;;;9.90;;
77164;SDS011;66140;50.280;18.660;2023-03-01T15:54:35;23.95;;;11.00;;
77164;SDS011;66140;50.280;18.660;2023-03-01T15:57:00;37.40;;;18.80;;
77164;SDS011;66140;50.280;18.660;2023-03-01T15:59:26;34.75;;;18.95;;
77164;SDS011;66140;50.280;18.660;2023-03-01T16:01:51;25.35;;;13.75;;
77164;SDS011;66140;50.280;18.660;2023-03-01T16:04:17;27.98;;;13.30;;
77164;SDS011;66140;50.280;18.660;2023-03-01T16:06:48;26.52;;;11.98;;
77164;SDS011;66140;50.280;18.660;2023-03-01T16:09:23;22.63;;;10.95;;
77164;SDS011;66140;50.280;18.660;2023-03-01T16:11:50;47.88;;;19.73;;
77164;SDS011;66140;50.280;18.660;2023-03-01T16:14:16;43.53;;;17.83;;
77164;SDS011;66140;50.280;18.660;2023-03-01T16:16:43;25.40;;;13.13;;
77164;SDS011;66140;50.280;18.660;2023-03-01T16:19:09;31.38;;;12.95;;
77164;SDS011;66140;50.280;18.660;2023-03-01T16:21:35;28.08;;;13.40;;
77164;SDS011;66140;50.280;18.660;2023-03-01T16:24:00;32.30;;;14.52;;
77164;SDS011;66140;50.280;18.660;2023-03-01T16:26:26;32.67;;;13.70;;
77164;SDS011;66140;50.280;18.660;2023-03-01T16:28:53;30.80;;;13.13;;
77164;SDS011;66140;50.280;18.660;2023-03-01T16:31:20;32.15;;;14.82;;
77164;SDS011;66140;50.280;18.660;2023-03-01T16:33:46;35.60;;;15.30;;
77164;SDS011;66140;50.280;18.660;2023-03-01T16:38:40;50.40;;;23.63;;
77164;SDS011;66140;50.280;18.660;2023-03-01T16:41:05;70.68;;;28.95;;
77164;SDS011;66140;50.280;18.660;2023-03-01T16:43:37;40.70;;;18.60;;
77164;SDS011;66140;50.280;18.660;2023-03-01T16:46:09;35.15;;;14.45;;
77164;SDS011;66140;50.280;18.660;2023-03-01T16:48:42;32.25;;;14.48;;
77164;SDS011;66140;50.280;18.660;2023-03-01T16:51:08;30.55;;;13.13;;
77164;SDS011;66140;50.280;18.660;2023-03-01T16:53:34;26.55;;;12.45;;
77164;SDS011;66140;50.280;18.660;2023-03-01T16:56:01;32.92;;;12.30;;
77164;SDS011;66140;50.280;18.660;2023-03-01T16:58:29;24.92;;;12.15;;
77164;SDS011;66140;50.280;18.660;2023-03-01T17:00:55;34.33;;;14.93;;
77164;SDS011;66140;50.280;18.660;2023-03-01T17:03:22;79.63;;;28.10;;
77164;SDS011;66140;50.280;18.660;2023-03-01T17:05:49;56.03;;;22.63;;
77164;SDS011;66140;50.280;18.660;2023-03-01T17:08:15;42.72;;;18.25;;
77164;SDS011;66140;50.280;18.660;2023-03-01T17:10:41;39.30;;;17.58;;
77164;SDS011;66140;50.280;18.660;2023-03-01T17:13:11;30.40;;;14.82;;
77164;SDS011;66140;50.280;18.660;2023-03-01T17:15:40;33.65;;;16.33;;
77164;SDS011;66140;50.280;18.660;2023-03-01T17:18:06;37.70;;;15.38;;
77164;SDS011;66140;50.280;18.660;2023-03-01T17:20:33;36.45;;;15.70;;
77164;SDS011;66140;50.280;18.660;2023-03-01T17:22:59;38.17;;;16.63;;
77164;SDS011;66140;50.280;18.660;2023-03-01T17:25:25;41.33;;;15.65;;
77164;SDS011;66140;50.280;18.660;2023-03-01T17:27:50;47.97;;;19.05;;
77164;SDS011;66140;50.280;18.660;2023-03-01T17:30:16;38.33;;;16.45;;
77164;SDS011;66140;50.280;18.660;2023-03-01T17:32:42;49.28;;;19.05;;
77164;SDS011;66140;50.280;18.660;2023-03-01T17:35:07;57.33;;;23.70;;
77164;SDS011;66140;50.280;18.660;2023-03-01T17:37:35;46.28;;;20.40;;
77164;SDS011;66140;50.280;18.660;2023-03-01T17:40:03;49.45;;;17.80;;
77164;SDS011;66140;50.280;18.660;2023-03-01T17:42:30;42.28;;;19.10;;
77164;SDS011;66140;50.280;18.660;2023-03-01T17:44:55;43.05;;;19.45;;
77164;SDS011;66140;50.280;18.660;2023-03-01T17:47:21;49.35;;;20.27;;
77164;SDS011;66140;50.280;18.660;2023-03-01T17:49:47;47.83;;;19.60;;
77164;SDS011;66140;50.280;18.660;2023-03-01T17:52:12;44.80;;;19.60;;
77164;SDS011;66140;50.280;18.660;2023-03-01T17:54:37;44.30;;;18.10;;
77164;SDS011;66140;50.280;18.660;2023-03-01T17:57:04;45.05;;;18.40;;
77164;SDS011;66140;50.280;18.660;2023-03-01T17:59:29;49.42;;;18.80;;
77164;SDS011;66140;50.280;18.660;2023-03-01T18:01:57;48.83;;;19.92;;
77164;SDS011;66140;50.280;18.660;2023-03-01T18:04:25;42.03;;;20.17;;
77164;SDS011;66140;50.280;18.660;2023-03-01T18:06:51;39.55;;;17.77;;
77164;SDS011;66140;50.280;18.660;2023-03-01T18:09:16;47.58;;;17.85;;
77164;SDS011;66140;50.280;18.660;2023-03-01T18:11:42;47.17;;;20.70;;
77164;SDS011;66140;50.280;18.660;2023-03-01T18:14:08;35.80;;;17.90;;
77164;SDS011;66140;50.280;18.660;2023-03-01T18:16:33;39.35;;;18.05;;
77164;SDS011;66140;50.280;18.660;2023-03-01T18:18:59;42.60;;;19.50;;
77164;SDS011;66140;50.280;18.660;2023-03-01T18:21:26;51.80;;;19.23;;
77164;SDS011;66140;50.280;18.660;2023-03-01T18:23:53;48.22;;;20.77;;
77164;SDS011;66140;50.280;18.660;2023-03-01T18:26:19;46.33;;;18.55;;
77164;SDS011;66140;50.280;18.660;2023-03-01T18:28:47;42.95;;;19.98;;
77164;SDS011;66140;50.280;18.660;2023-03-01T18:31:15;40.53;;;18.75;;
77164;SDS011;66140;50.280;18.660;2023-03-01T18:33:42;53.78;;;21.20;;
77164;SDS011;66140;50.280;18.660;2023-03-01T18:36:16;51.40;;;21.13;;
77164;SDS011;66140;50.280;18.660;2023-03-01T18:38:44;45.00;;;20.85;;
77164;SDS011;66140;50.280;18.660;2023-03-01T18:41:09;55.17;;;22.73;;
77164;SDS011;66140;50.280;18.660;2023-03-01T18:43:35;61.72;;;24.65;;
77164;SDS011;66140;50.280;18.660;2023-03-01T18:46:00;58.80;;;28.20;;
77164;SDS011;66140;50.280;18.660;2023-03-01T18:48:29;74.05;;;28.75;;
77164;SDS011;66140;50.280;18.660;2023-03-01T18:50:55;69.70;;;28.88;;
77164;SDS011;66140;50.280;18.660;2023-03-01T18:53:20;81.13;;;31.67;;
77164;SDS011;66140;50.280;18.660;2023-03-01T18:55:46;70.88;;;30.65;;
77164;SDS011;66140;50.280;18.660;2023-03-01T18:58:11;75.93;;;30.42;;
77164;SDS011;66140;50.280;18.660;2023-03-01T19:00:36;68.85;;;30.67;;
77164;SDS011;66140;50.280;18.660;2023-03-01T19:03:02;87.57;;;35.80;;
77164;SDS011;66140;50.280;18.660;2023-03-01T19:05:28;72.10;;;31.58;;
77164;SDS011;66140;50.280;18.660;2023-03-01T19:07:54;78.95;;;30.80;;
77164;SDS011;66140;50.280;18.660;2023-03-01T19:10:19;68.30;;;30.00;;
77164;SDS011;66140;50.280;18.660;2023-03-01T19:12:45;69.72;;;30.63;;
77164;SDS011;66140;50.280;18.660;2023-03-01T19:15:11;63.60;;;27.75;;
77164;SDS011;66140;50.280;18.660;2023-03-01T19:17:36;65.32;;;26.58;;
77164;SDS011;66140;50.280;18.660;2023-03-01T19:20:02;73.22;;;28.65;;
77164;SDS011;66140;50.280;18.660;2023-03-01T19:22:28;67.93;;;28.15;;
77164;SDS011;66140;50.280;18.660;2023-03-01T19:24:53;74.35;;;32.78;;
77164;SDS011;66140;50.280;18.660;2023-03-01T19:27:19;79.20;;;32.03;;
77164;SDS011;66140;50.280;18.660;2023-03-01T19:29:44;73.13;;;32.22;;
77164;SDS011;66140;50.280;18.660;2023-03-01T19:32:10;67.57;;;28.63;;
77164;SDS011;66140;50.280;18.660;2023-03-01T19:34:35;76.38;;;30.23;;
77164;SDS011;66140;50.280;18.660;2023-03-01T19:37:02;65.68;;;30.00;;
77164;SDS011;66140;50.280;18.660;2023-03-01T19:39:28;77.53;;;33.00;;
77164;SDS011;66140;50.280;18.660;2023-03-01T19:41:54;71.60;;;30.80;;
77164;SDS011;66140;50.280;18.660;2023-03-01T19:44:20;88.43;;;36.03;;
77164;SDS011;66140;50.280;18.660;2023-03-01T19:46:52;70.03;;;32.60;;
77164;SDS011;66140;50.280;18.660;2023-03-01T19:49:18;74.95;;;30.58;;
77164;SDS011;66140;50.280;18.660;2023-03-01T19:51:44;81.97;;;31.90;;
77164;SDS011;66140;50.280;18.660;2023-03-01T19:54:09;77.65;;;33.90;;
77164;SDS011;66140;50.280;18.660;2023-03-01T19:56:36;85.63;;;34.63;;
77164;SDS011;66140;50.280;18.660;2023-03-01T19:59:03;137.57;;;48.42;;
77164;SDS011;66140;50.280;18.660;2023-03-01T20:01:30;138.35;;;50.28;;
77164;SDS011;66140;50.280;18.660;2023-03-01T20:03:58;123.13;;;43.67;;
77164;SDS011;66140;50.280;18.660;2023-03-01T20:06:24;115.72;;;46.00;;
77164;SDS011;66140;50.280;18.660;2023-03-01T20:08:50;132.40;;;49.67;;
77164;SDS011;66140;50.280;18.660;2023-03-01T20:11:16;111.35;;;45.45;;
77164;SDS011;66140;50.280;18.660;2023-03-01T20:13:43;112.95;;;44.10;;
77164;SDS011;66140;50.280;18.660;2023-03-01T20:16:08;111.13;;;44.47;;
77164;SDS011;66140;50.280;18.660;2023-03-01T20:18:35;100.07;;;43.72;;
77164;SDS011;66140;50.280;18.660;2023-03-01T20:21:01;102.80;;;43.75;;
77164;SDS011;66140;50.280;18.660;2023-03-01T20:23:27;116.30;;;46.17;;
77164;SDS011;66140;50.280;18.660;2023-03-01T20:26:04;116.65;;;48.85;;
77164;SDS011;66140;50.280;18.660;2023-03-01T20:28:32;109.00;;;46.67;;
77164;SDS011;66140;50.280;18.660;2023-03-01T20:31:02;120.00;;;47.17;;
77164;SDS011;66140;50.280;18.660;2023-03-01T20:33:34;113.03;;;47.88;;
77164;SDS011;66140;50.280;18.660;2023-03-01T20:35:59;116.57;;;47.15;;
77164;SDS011;66140;50.280;18.660;2023-03-01T20:38:25;116.38;;;47.53;;
77164;SDS011;66140;50.280;18.660;2023-03-01T20:41:05;121.03;;;47.92;;
77164;SDS011;66140;50.280;18.660;2023-03-01T20:43:32;115.22;;;46.08;;
77164;SDS011;66140;50.280;18.660;2023-03-01T20:46:01;114.50;;;49.85;;
77164;SDS011;66140;50.280;18.660;2023-03-01T20:48:28;134.45;;;50.05;;
77164;SDS011;66140;50.280;18.660;2023-03-01T20:50:53;122.47;;;48.83;;
77164;SDS011;66140;50.280;18.660;2023-03-01T20:53:20;133.55;;;52.78;;
77164;SDS011;66140;50.280;18.660;2023-03-01T20:55:46;144.13;;;52.55;;
77164;SDS011;66140;50.280;18.660;2023-03-01T20:58:11;136.40;;;52.42;;
77164;SDS011;66140;50.280;18.660;2023-03-01T21:00:37;134.30;;;51.28;;
77164;SDS011;66140;50.280;18.660;2023-03-01T21:03:02;123.15;;;47.53;;
77164;SDS011;66140;50.280;18.660;2023-03-01T21:05:28;121.30;;;46.20;;
77164;SDS011;66140;50.280;18.660;2023-03-01T21:07:54;122.30;;;45.30;;
77164;SDS011;66140;50.280;18.660;2023-03-01T21:10:19;101.68;;;42.03;;
77164;SDS011;66140;50.280;18.660;2023-03-01T21:12:45;114.95;;;44.83;;
77164;SDS011;66140;50.280;18.660;2023-03-01T21:15:10;113.20;;;40.50;;
77164;SDS011;66140;50.280;18.660;2023-03-01T21:17:36;112.18;;;44.50;;
77164;SDS011;66140;50.280;18.660;2023-03-01T21:20:02;115.05;;;44.15;;
77164;SDS011;66140;50.280;18.660;2023-03-01T21:22:28;123.50;;;45.95;;
77164;SDS011;66140;50.280;18.660;2023-03-01T21:24:56;114.72;;;42.33;;
77164;SDS011;66140;50.280;18.660;2023-03-01T21:27:22;114.43;;;42.58;;
77164;SDS011;66140;50.280;18.660;2023-03-01T21:29:47;110.97;;;44.40;;
77164;SDS011;66140;50.280;18.660;2023-03-01T21:32:13;130.57;;;45.40;;
77164;SDS011;66140;50.280;18.660;2023-03-01T21:34:39;99.90;;;39.85;;
77164;SDS011;66140;50.280;18.660;2023-03-01T21:37:05;96.15;;;39.50;;
77164;SDS011;66140;50.280;18.660;2023-03-01T21:39:32;102.72;;;37.40;;
77164;SDS011;66140;50.280;18.660;2023-03-01T21:41:58;98.70;;;39.08;;
77164;SDS011;66140;50.280;18.660;2023-03-01T21:44:26;107.93;;;38.42;;